createdAt,value
2022-10-16T00:02:05.224Z,76.80
2022-10-16T00:04:34.304Z,76.80
2022-10-16T00:07:03.408Z,76.80
2022-10-16T00:09:32.514Z,76.90
2022-10-16T00:12:01.616Z,76.90
2022-10-16T00:14:30.590Z,76.90
2022-10-16T00:17:00.978Z,77.00
2022-10-16T00:19:30.060Z,76.90
2022-10-16T00:21:59.074Z,76.90
2022-10-16T00:24:46.279Z,76.90
2022-10-16T00:27:15.382Z,76.90
2022-10-16T00:29:44.535Z,76.80
2022-10-16T00:32:14.883Z,76.70
2022-10-16T00:34:43.942Z,76.50
2022-10-16T00:37:12.956Z,76.30
2022-10-16T00:39:41.958Z,76.20
2022-10-16T00:42:16.705Z,76.10
2022-10-16T00:44:50.812Z,76.00
2022-10-16T00:47:26.488Z,75.90
2022-10-16T00:50:00.873Z,75.80
2022-10-16T00:52:29.993Z,75.80
2022-10-16T00:55:00.266Z,75.60
2022-10-16T00:57:29.434Z,75.60
2022-10-16T00:59:59.875Z,75.50
2022-10-16T01:02:30.257Z,75.50
2022-10-16T01:04:59.475Z,75.40
2022-10-16T01:07:39.305Z,75.40
2022-10-16T01:10:16.755Z,75.40
2022-10-16T01:12:52.258Z,75.50
2022-10-16T01:15:28.678Z,75.60
2022-10-16T01:18:07.109Z,76.60
2022-10-16T01:20:40.703Z,75.80
2022-10-16T01:23:23.525Z,75.80
2022-10-16T01:26:10.317Z,75.90
2022-10-16T01:28:47.315Z,75.80
2022-10-16T01:31:20.807Z,75.70
2022-10-16T01:33:55.110Z,76.10
2022-10-16T01:36:28.974Z,75.60
2022-10-16T01:39:02.778Z,75.60
2022-10-16T01:41:37.413Z,75.50
2022-10-16T01:44:10.450Z,75.50
2022-10-16T01:46:41.909Z,75.40
2022-10-16T01:49:12.672Z,75.30
2022-10-16T01:51:41.902Z,75.30
2022-10-16T01:54:14.677Z,75.40
2022-10-16T01:56:44.731Z,75.40
2022-10-16T01:59:17.939Z,75.60
2022-10-16T02:01:52.449Z,75.80
2022-10-16T02:04:26.468Z,75.90
2022-10-16T02:06:56.017Z,76.10
2022-10-16T02:09:25.004Z,76.10
2022-10-16T02:11:57.153Z,76.30
2022-10-16T02:14:28.438Z,76.40
2022-10-16T02:16:57.247Z,76.60
2022-10-16T02:19:26.337Z,76.70
2022-10-16T02:21:58.728Z,76.60
2022-10-16T02:24:35.351Z,76.60
2022-10-16T02:27:09.318Z,76.80
2022-10-16T02:29:45.560Z,76.80
2022-10-16T02:32:17.805Z,76.70
2022-10-16T02:34:48.025Z,76.60
2022-10-16T02:37:17.617Z,76.60
2022-10-16T02:39:46.613Z,76.60
2022-10-16T02:42:16.555Z,76.60
2022-10-16T02:44:47.023Z,76.50
2022-10-16T02:47:16.063Z,76.30
2022-10-16T02:49:45.145Z,76.20
2022-10-16T02:52:14.146Z,76.10
2022-10-16T02:54:43.082Z,76.00
2022-10-16T02:57:12.819Z,76.00
2022-10-16T02:59:41.842Z,75.90
2022-10-16T03:02:12.393Z,75.70
2022-10-16T03:04:41.391Z,75.40
2022-10-16T03:07:10.369Z,75.20
2022-10-16T03:09:39.322Z,74.90
2022-10-16T03:12:08.434Z,74.60
2022-10-16T03:14:37.428Z,74.40
2022-10-16T03:17:06.357Z,74.20
2022-10-16T03:19:36.897Z,74.10
2022-10-16T03:22:05.920Z,74.00
2022-10-16T03:24:34.849Z,73.90
2022-10-16T03:27:03.853Z,73.90
2022-10-16T03:29:33.838Z,73.90
2022-10-16T03:32:03.439Z,73.80
2022-10-16T03:34:32.753Z,73.80
2022-10-16T03:37:03.187Z,73.80
2022-10-16T03:39:32.153Z,73.80
2022-10-16T03:42:01.123Z,73.70
2022-10-16T03:44:30.052Z,73.70
2022-10-16T03:46:59.009Z,73.70
2022-10-16T03:49:27.969Z,73.70
2022-10-16T03:51:56.974Z,73.60
2022-10-16T03:54:27.318Z,73.60
2022-10-16T03:56:56.248Z,73.70
2022-10-16T03:59:25.259Z,73.60
2022-10-16T04:01:54.192Z,73.70
2022-10-16T04:04:23.266Z,73.80
2022-10-16T04:06:52.231Z,73.90
2022-10-16T04:09:21.226Z,73.80
2022-10-16T04:11:51.807Z,73.80
2022-10-16T04:14:20.949Z,73.80
2022-10-16T04:16:49.922Z,73.80
2022-10-16T04:19:18.892Z,73.80
2022-10-16T04:21:47.903Z,73.70
2022-10-16T04:24:16.945Z,73.70
2022-10-16T04:26:45.937Z,73.70
2022-10-16T04:29:16.320Z,73.70
2022-10-16T04:31:45.263Z,73.70
2022-10-16T04:34:14.262Z,73.70
2022-10-16T04:36:43.230Z,73.70
2022-10-16T04:39:12.165Z,73.70
2022-10-16T04:41:41.129Z,73.80
2022-10-16T04:44:10.245Z,73.80
2022-10-16T04:46:40.705Z,73.90
2022-10-16T04:49:09.638Z,73.90
2022-10-16T04:51:38.575Z,74.10
2022-10-16T04:54:07.689Z,74.00
2022-10-16T04:56:43.965Z,74.10
2022-10-16T04:59:12.907Z,74.10
2022-10-16T05:01:43.282Z,74.00
2022-10-16T05:04:12.266Z,73.80
2022-10-16T05:06:41.527Z,73.80
2022-10-16T05:09:11.298Z,73.70
2022-10-16T05:11:40.263Z,73.60
2022-10-16T05:16:44.625Z,73.40
2022-10-16T05:19:29.160Z,73.30
2022-10-16T05:21:58.461Z,73.40
2022-10-16T05:24:27.435Z,73.40
2022-10-16T05:26:56.580Z,73.40
2022-10-16T05:29:25.658Z,73.40
2022-10-16T05:31:56.089Z,73.50
2022-10-16T05:34:25.154Z,74.40
2022-10-16T05:36:54.146Z,73.50
2022-10-16T05:39:23.135Z,73.60
2022-10-16T05:41:53.380Z,73.40
2022-10-16T05:44:22.681Z,73.40
2022-10-16T05:46:51.662Z,73.30
2022-10-16T05:49:22.050Z,73.30
2022-10-16T05:51:51.004Z,73.20
2022-10-16T05:54:20.014Z,73.40
2022-10-16T05:56:49.001Z,73.40
2022-10-16T05:59:18.038Z,73.50
2022-10-16T06:01:47.052Z,73.60
2022-10-16T06:04:16.079Z,73.70
2022-10-16T06:06:46.459Z,73.60
2022-10-16T06:09:15.400Z,73.60
2022-10-16T06:11:44.508Z,73.60
2022-10-16T06:14:13.425Z,73.60
2022-10-16T06:16:42.372Z,73.80
2022-10-16T06:19:11.360Z,73.90
2022-10-16T06:21:40.377Z,73.90
2022-10-16T06:24:11.737Z,73.90
2022-10-16T06:26:40.492Z,74.00
2022-10-16T06:29:11.040Z,74.10
2022-10-16T06:31:40.105Z,73.90
2022-10-16T06:34:12.468Z,73.90
2022-10-16T06:36:42.109Z,73.80
2022-10-16T06:39:12.499Z,73.70
2022-10-16T06:41:41.570Z,73.70
2022-10-16T06:44:18.000Z,73.70
2022-10-16T06:46:46.944Z,73.80
2022-10-16T06:49:22.184Z,73.90
2022-10-16T06:51:51.443Z,74.00
2022-10-16T06:54:21.786Z,74.00
2022-10-16T06:56:50.755Z,74.10
2022-10-16T06:59:19.836Z,75.00
2022-10-16T07:01:49.157Z,74.10
2022-10-16T07:04:18.100Z,74.10
2022-10-16T07:06:47.105Z,74.20
2022-10-16T07:09:16.086Z,74.20
2022-10-16T07:11:46.481Z,74.20
2022-10-16T07:14:18.218Z,74.20
2022-10-16T07:16:47.284Z,74.30
2022-10-16T07:19:18.723Z,74.30
2022-10-16T07:21:47.917Z,74.40
2022-10-16T07:24:18.134Z,74.40
2022-10-16T07:26:48.633Z,74.50
2022-10-16T07:29:19.633Z,74.60
2022-10-16T07:31:49.796Z,74.60
2022-10-16T07:34:22.563Z,74.60
2022-10-16T07:36:51.837Z,74.70
2022-10-16T07:39:21.116Z,74.80
2022-10-16T07:41:51.446Z,74.90
2022-10-16T07:44:20.406Z,75.10
2022-10-16T07:46:49.454Z,75.20
2022-10-16T07:49:18.430Z,75.30
2022-10-16T07:51:47.356Z,75.20
2022-10-16T07:54:16.440Z,75.30
2022-10-16T07:56:45.390Z,75.20
2022-10-16T07:59:15.964Z,75.30
2022-10-16T08:01:45.118Z,75.20
2022-10-16T08:04:14.254Z,75.10
2022-10-16T08:06:43.631Z,75.00
2022-10-16T08:09:12.731Z,75.00
2022-10-16T08:11:41.753Z,75.00
2022-10-16T08:14:10.716Z,75.00
2022-10-16T08:16:41.416Z,74.80
2022-10-16T08:19:10.455Z,74.60
2022-10-16T08:21:39.440Z,74.50
2022-10-16T08:24:08.426Z,74.40
2022-10-16T08:26:37.366Z,74.20
2022-10-16T08:29:06.451Z,74.30
2022-10-16T08:31:35.655Z,74.30
2022-10-16T08:34:06.274Z,74.40
2022-10-16T08:36:35.242Z,74.30
2022-10-16T08:39:04.405Z,74.30
2022-10-16T08:41:57.243Z,74.50
2022-10-16T08:44:56.968Z,74.70
2022-10-16T08:47:28.807Z,74.60
2022-10-16T08:50:02.787Z,74.60
2022-10-16T08:52:37.642Z,74.40
2022-10-16T08:55:07.987Z,74.20
2022-10-16T08:57:36.996Z,74.20
2022-10-16T09:00:15.036Z,74.20
2022-10-16T09:02:52.100Z,74.10
2022-10-16T09:05:35.035Z,74.10
2022-10-16T09:08:13.418Z,74.00
2022-10-16T09:10:52.298Z,74.00
2022-10-16T09:13:28.469Z,74.00
2022-10-16T09:16:05.759Z,74.00
2022-10-16T09:18:43.144Z,74.00
2022-10-16T09:21:20.325Z,74.00
2022-10-16T09:23:49.950Z,74.10
2022-10-16T09:26:20.740Z,74.10
2022-10-16T09:28:49.933Z,73.90
2022-10-16T09:31:21.082Z,73.70
2022-10-16T09:33:55.547Z,73.60
2022-10-16T09:36:28.058Z,73.30
2022-10-16T09:39:08.702Z,73.20
2022-10-16T09:41:39.419Z,73.20
2022-10-16T09:44:20.909Z,73.10
2022-10-16T09:46:49.649Z,72.80
2022-10-16T09:49:24.705Z,72.70
2022-10-16T09:52:05.717Z,72.50
2022-10-16T09:54:34.808Z,72.20
2022-10-16T09:57:08.086Z,72.00
2022-10-16T09:59:47.564Z,71.80
2022-10-16T10:02:18.467Z,71.60
2022-10-16T10:04:52.435Z,71.30
2022-10-16T10:07:27.718Z,71.30
2022-10-16T10:09:58.838Z,71.40
2022-10-16T10:12:30.930Z,71.50
2022-10-16T10:15:05.692Z,71.60
2022-10-16T10:17:35.436Z,71.80
2022-10-16T10:20:24.810Z,71.80
2022-10-16T10:22:56.649Z,71.70
2022-10-16T10:25:39.677Z,71.70
2022-10-16T10:28:42.929Z,71.80
2022-10-16T10:31:19.237Z,71.80
2022-10-16T10:33:56.797Z,71.90
2022-10-16T10:36:32.495Z,72.00
2022-10-16T10:39:07.101Z,72.00
2022-10-16T10:42:18.223Z,71.90
2022-10-16T10:45:19.801Z,72.00
2022-10-16T10:48:05.916Z,71.90
2022-10-16T10:50:41.902Z,71.70
2022-10-16T10:53:20.831Z,71.60
2022-10-16T10:56:00.621Z,71.50
2022-10-16T10:59:09.481Z,71.50
2022-10-16T11:01:49.082Z,71.40
2022-10-16T11:04:40.572Z,71.30
2022-10-16T11:07:16.285Z,71.10
2022-10-16T11:09:49.420Z,71.00
2022-10-16T11:12:24.029Z,70.50
2022-10-16T11:15:00.693Z,70.50
2022-10-16T11:17:34.306Z,70.40
2022-10-16T11:20:14.295Z,70.40
2022-10-16T11:22:49.136Z,70.40
2022-10-16T11:25:23.193Z,70.50
2022-10-16T11:27:59.036Z,70.60
2022-10-16T11:30:29.695Z,70.60
2022-10-16T11:33:12.658Z,70.60
2022-10-16T11:35:46.433Z,70.50
2022-10-16T11:38:23.622Z,70.50
2022-10-16T11:40:58.532Z,70.50
2022-10-16T11:43:34.087Z,70.50
2022-10-16T11:46:10.510Z,70.60
2022-10-16T11:48:45.503Z,70.50
2022-10-16T11:51:21.640Z,70.90
2022-10-16T11:53:58.337Z,71.20
2022-10-16T11:56:27.887Z,71.20
2022-10-16T11:59:03.628Z,71.30
2022-10-16T12:01:40.155Z,71.40
2022-10-16T12:04:22.189Z,71.40
2022-10-16T12:06:55.193Z,71.60
2022-10-16T12:09:28.044Z,71.60
2022-10-16T12:11:57.387Z,71.60
2022-10-16T12:15:04.064Z,71.70
2022-10-16T12:17:37.131Z,71.70
2022-10-16T12:20:27.922Z,71.70
2022-10-16T12:22:59.495Z,71.50
2022-10-16T12:25:31.242Z,71.50
2022-10-16T12:28:05.959Z,71.30
2022-10-16T12:30:38.799Z,71.20
2022-10-16T12:33:22.031Z,71.00
2022-10-16T12:35:51.281Z,70.80
2022-10-16T12:38:23.212Z,70.70
2022-10-16T12:41:00.178Z,70.40
2022-10-16T12:43:43.248Z,70.40
2022-10-16T12:46:26.541Z,70.40
2022-10-16T12:49:06.732Z,70.40
2022-10-16T12:51:38.544Z,70.40
2022-10-16T12:54:15.246Z,70.40
2022-10-16T12:56:57.914Z,70.50
2022-10-16T12:59:37.382Z,70.60
2022-10-16T13:02:43.107Z,70.80
2022-10-16T13:05:27.801Z,70.80
2022-10-16T13:08:12.657Z,70.80
2022-10-16T13:10:46.890Z,70.90
2022-10-16T13:13:44.319Z,71.00
2022-10-16T13:16:22.041Z,71.00
2022-10-16T13:19:03.957Z,71.10
2022-10-16T13:21:45.972Z,71.20
2022-10-16T13:24:29.120Z,71.30
2022-10-16T13:27:06.353Z,71.40
2022-10-16T13:29:36.205Z,71.50
2022-10-16T13:32:14.117Z,71.60
2022-10-16T13:34:48.356Z,71.90
2022-10-16T13:37:23.553Z,72.10
2022-10-16T13:39:52.715Z,72.30
2022-10-16T13:42:28.264Z,72.40
2022-10-16T13:44:58.591Z,72.60
2022-10-16T13:47:29.912Z,72.70
2022-10-16T13:50:03.529Z,72.90
2022-10-16T13:52:34.466Z,73.20
2022-10-16T13:55:03.511Z,73.60
2022-10-16T13:57:32.532Z,73.90
2022-10-16T14:00:01.596Z,74.30
2022-10-16T14:02:36.381Z,74.70
2022-10-16T14:05:06.706Z,75.10
2022-10-16T14:07:37.633Z,75.40
2022-10-16T14:10:09.352Z,75.90
2022-10-16T14:12:38.458Z,76.10
2022-10-16T14:15:21.515Z,76.40
2022-10-16T14:17:53.802Z,76.60
2022-10-16T14:20:27.912Z,76.70
2022-10-16T14:23:07.202Z,76.80
2022-10-16T14:25:36.363Z,77.00
2022-10-16T14:28:16.992Z,77.00
2022-10-16T14:30:53.742Z,77.00
2022-10-16T14:33:34.209Z,77.00
2022-10-16T14:36:06.981Z,77.00
2022-10-16T14:38:40.270Z,77.10
2022-10-16T14:41:10.218Z,77.20
2022-10-16T14:43:40.966Z,77.40
2022-10-16T14:46:17.769Z,77.70
2022-10-16T14:48:50.962Z,78.30
2022-10-16T14:51:21.665Z,77.90
2022-10-16T14:53:55.483Z,78.10
2022-10-16T14:56:33.272Z,78.10
2022-10-16T14:59:03.187Z,78.10
2022-10-16T15:01:32.183Z,77.90
2022-10-16T15:04:01.228Z,77.70
2022-10-16T15:06:30.239Z,77.40
2022-10-16T15:09:00.637Z,77.30
2022-10-16T15:11:29.646Z,77.20
2022-10-16T15:13:58.622Z,77.00
2022-10-16T15:16:27.703Z,77.10
2022-10-16T15:18:56.652Z,77.20
2022-10-16T15:21:28.256Z,77.20
2022-10-16T15:23:57.701Z,77.10
2022-10-16T15:26:29.993Z,77.10
2022-10-16T15:28:59.380Z,76.90
2022-10-16T15:31:28.358Z,76.80
2022-10-16T15:34:02.605Z,76.60
2022-10-16T15:36:34.786Z,76.70
2022-10-16T15:39:04.082Z,76.60
2022-10-16T15:41:34.623Z,76.70
2022-10-16T15:44:03.649Z,76.90
2022-10-16T15:46:34.760Z,77.00
2022-10-16T15:49:03.694Z,77.30
2022-10-16T15:51:34.296Z,77.60
2022-10-16T15:54:03.679Z,78.10
2022-10-16T15:56:34.435Z,78.50
2022-10-16T15:59:03.631Z,78.80
2022-10-16T16:01:35.057Z,79.30
2022-10-16T16:04:10.959Z,79.90
2022-10-16T16:06:45.983Z,80.40
2022-10-16T16:09:16.315Z,81.10
2022-10-16T16:11:46.731Z,81.90
2022-10-16T16:14:16.575Z,82.60
2022-10-16T16:16:45.633Z,83.10
2022-10-16T16:19:17.170Z,83.70
2022-10-16T16:21:46.211Z,84.30
2022-10-16T16:24:15.247Z,84.60
2022-10-16T16:26:46.080Z,84.90
2022-10-16T16:29:17.070Z,85.10
2022-10-16T16:31:48.062Z,85.50
2022-10-16T16:34:17.374Z,85.70
2022-10-16T16:36:46.384Z,85.80
2022-10-16T16:39:15.320Z,86.00
2022-10-16T16:41:44.343Z,86.10
2022-10-16T16:44:15.730Z,86.30
2022-10-16T16:46:45.093Z,86.50
2022-10-16T16:49:15.924Z,86.50
2022-10-16T16:51:44.950Z,86.40
2022-10-16T16:54:14.984Z,86.50
2022-10-16T16:56:45.337Z,86.60
2022-10-16T16:59:17.861Z,86.50
2022-10-16T17:01:47.034Z,86.80
2022-10-16T17:04:16.558Z,87.00
2022-10-16T17:06:45.760Z,87.10
2022-10-16T17:09:16.224Z,87.20
2022-10-16T17:11:45.715Z,87.30
2022-10-16T17:14:17.240Z,87.30
2022-10-16T17:16:46.640Z,87.60
2022-10-16T17:19:17.915Z,87.60
2022-10-16T17:21:47.483Z,87.60
2022-10-16T17:24:16.584Z,87.70
2022-10-16T17:26:49.145Z,87.70
2022-10-16T17:29:20.202Z,87.80
2022-10-16T17:31:50.642Z,87.80
2022-10-16T17:34:19.705Z,87.90
2022-10-16T17:36:48.797Z,87.90
2022-10-16T17:39:20.412Z,88.20
2022-10-16T17:41:50.011Z,88.50
2022-10-16T17:44:23.890Z,88.70
2022-10-16T17:46:54.397Z,88.90
2022-10-16T17:51:53.182Z,89.00
2022-10-16T17:54:22.613Z,89.10
2022-10-16T17:56:51.746Z,89.20
2022-10-16T17:59:23.377Z,89.30
2022-10-16T18:01:52.675Z,89.40
2022-10-16T18:04:21.878Z,90.20
2022-10-16T18:06:50.975Z,90.00
2022-10-16T18:09:21.380Z,90.00
2022-10-16T18:11:55.553Z,90.00
2022-10-16T18:14:25.944Z,90.00
2022-10-16T18:16:55.149Z,90.00
2022-10-16T18:19:26.934Z,90.00
2022-10-16T18:21:56.933Z,90.00
2022-10-16T18:24:27.799Z,90.20
2022-10-16T18:26:59.705Z,90.20
2022-10-16T18:29:30.428Z,90.30
2022-10-16T18:31:59.882Z,90.40
2022-10-16T18:34:29.466Z,90.50
2022-10-16T18:36:58.827Z,90.60
2022-10-16T18:39:28.002Z,90.70
2022-10-16T18:41:59.996Z,90.70
2022-10-16T18:44:31.468Z,90.70
2022-10-16T18:47:02.513Z,90.80
2022-10-16T18:49:31.561Z,90.70
2022-10-16T18:52:03.187Z,90.70
2022-10-16T18:54:32.811Z,90.60
2022-10-16T18:57:01.881Z,90.40
2022-10-16T18:59:32.421Z,90.30
2022-10-16T19:02:01.631Z,90.20
2022-10-16T19:04:30.692Z,90.10
2022-10-16T19:06:59.893Z,89.90
2022-10-16T19:09:28.933Z,89.70
2022-10-16T19:11:59.896Z,89.40
2022-10-16T19:14:30.220Z,89.20
2022-10-16T19:17:01.005Z,89.00
2022-10-16T19:19:30.042Z,88.90
2022-10-16T19:22:11.585Z,88.80
2022-10-16T19:24:40.674Z,88.80
2022-10-16T19:27:09.895Z,88.90
2022-10-16T19:29:38.962Z,89.10
2022-10-16T19:32:09.636Z,89.20
2022-10-16T19:34:38.965Z,89.40
2022-10-16T19:37:10.919Z,89.50
2022-10-16T19:39:40.216Z,89.80
2022-10-16T19:42:09.551Z,90.00
2022-10-16T19:44:39.605Z,90.20
2022-10-16T19:47:10.635Z,90.50
2022-10-16T19:49:39.773Z,90.60
2022-10-16T19:52:08.936Z,90.70
2022-10-16T19:54:39.158Z,90.90
2022-10-16T19:57:09.665Z,91.00
2022-10-16T19:59:41.888Z,91.20
2022-10-16T20:02:16.048Z,91.30
2022-10-16T20:04:45.247Z,91.40
2022-10-16T20:07:14.413Z,91.60
2022-10-16T20:09:43.661Z,91.60
2022-10-16T20:12:12.922Z,91.70
2022-10-16T20:14:42.390Z,91.80
2022-10-16T20:17:11.655Z,91.80
2022-10-16T20:19:42.977Z,92.00
2022-10-16T20:22:12.309Z,92.10
2022-10-16T20:24:42.000Z,92.20
2022-10-16T20:27:11.142Z,92.30
2022-10-16T20:29:40.366Z,92.30
2022-10-16T20:32:09.648Z,92.40
2022-10-16T20:37:09.521Z,92.60
2022-10-16T20:39:38.640Z,92.70
2022-10-16T20:42:07.682Z,92.80
2022-10-16T20:44:36.737Z,92.80
2022-10-16T20:47:05.992Z,93.00
2022-10-16T20:49:40.653Z,93.10
2022-10-16T20:52:11.581Z,93.20
2022-10-16T20:54:40.684Z,93.30
2022-10-16T20:57:09.755Z,93.40
2022-10-16T20:59:38.939Z,93.50
2022-10-16T21:02:13.356Z,93.60
2022-10-16T21:04:43.384Z,93.70
2022-10-16T21:07:13.769Z,93.80
2022-10-16T21:09:42.720Z,93.90
2022-10-16T21:12:12.157Z,94.00
2022-10-16T21:14:46.416Z,94.10
2022-10-16T21:17:25.630Z,94.30
2022-10-16T21:19:54.559Z,94.20
2022-10-16T21:22:25.231Z,94.20
2022-10-16T21:24:54.534Z,94.10
2022-10-16T21:27:23.553Z,94.10
2022-10-16T21:29:54.408Z,94.00
2022-10-16T21:32:23.527Z,93.90
2022-10-16T21:34:52.516Z,93.90
2022-10-16T21:37:21.518Z,93.80
2022-10-16T21:39:51.897Z,93.80
2022-10-16T21:42:20.848Z,93.80
2022-10-16T21:44:49.805Z,93.70
2022-10-16T21:47:19.217Z,93.60
2022-10-16T21:49:48.400Z,93.50
2022-10-16T21:52:17.398Z,93.40
2022-10-16T21:54:46.422Z,93.40
2022-10-16T21:57:16.827Z,93.30
2022-10-16T21:59:45.838Z,93.30
2022-10-16T22:02:14.801Z,93.30
2022-10-16T22:04:43.764Z,93.20
2022-10-16T22:07:12.757Z,93.10
2022-10-16T22:09:41.868Z,93.10
2022-10-16T22:12:10.901Z,93.10
2022-10-16T22:14:41.965Z,93.00
2022-10-16T22:17:10.924Z,93.00
2022-10-16T22:19:40.052Z,92.90
2022-10-16T22:22:09.115Z,92.90
2022-10-16T22:24:38.749Z,92.80
2022-10-16T22:27:07.733Z,92.80
2022-10-16T22:29:36.763Z,92.70
2022-10-16T22:32:07.242Z,92.70
2022-10-16T22:34:36.209Z,92.60
2022-10-16T22:37:05.335Z,92.60
2022-10-16T22:39:34.451Z,92.60
2022-10-16T22:42:03.688Z,92.50
2022-10-16T22:44:32.620Z,92.50
2022-10-16T22:47:01.752Z,92.50
2022-10-16T22:49:32.083Z,92.50
2022-10-16T22:52:02.696Z,92.50
2022-10-16T22:54:31.723Z,92.40
2022-10-16T22:57:00.678Z,92.40
2022-10-16T22:59:30.036Z,92.40
2022-10-16T23:01:59.013Z,92.40
2022-10-16T23:04:28.000Z,92.30
2022-10-16T23:06:59.232Z,92.30
2022-10-16T23:09:28.249Z,92.70
2022-10-16T23:11:57.195Z,92.20
2022-10-16T23:14:26.185Z,92.20
2022-10-16T23:16:55.209Z,92.20
2022-10-16T23:19:24.217Z,92.10
2022-10-16T23:21:53.299Z,92.00
2022-10-16T23:24:23.644Z,91.80
2022-10-16T23:26:52.634Z,91.70
2022-10-16T23:29:21.588Z,91.60
2022-10-16T23:31:50.615Z,91.50
2022-10-16T23:34:19.567Z,91.30
2022-10-16T23:36:48.562Z,91.30
2022-10-16T23:39:17.847Z,91.10
2022-10-16T23:41:48.236Z,91.00
2022-10-16T23:44:17.335Z,90.90
2022-10-16T23:46:46.465Z,90.90
2022-10-16T23:49:15.549Z,90.80
2022-10-16T23:51:44.484Z,90.70
2022-10-16T23:54:13.500Z,90.60
2022-10-16T23:56:42.458Z,90.50
2022-10-16T23:59:12.798Z,90.40
